Time;durP1;ratioP1;P1;durP2;ratioP2;P2;SDS_P1;SDS_P2;PMS_P1;PMS_P2;Temp;Humidity;BMP_temperature;BMP_pressure;BME280_temperature;BME280_humidity;BME280_pressure;Samples;Min_cycle;Max_cycle;Signal;HPM_P1;HPM_P2
2022/04/14 00:01:39;;;;;;;34.85;15.35;;;;;;;-141.50;100.00;63355.56;5093987;28;20044;-78
2022/04/14 00:04:06;;;;;;;33.92;14.07;;;;;;;-141.50;100.00;63355.56;5096912;28;20424;-80
2022/04/14 00:06:33;;;;;;;33.72;15.10;;;;;;;-141.50;100.00;63355.56;5083155;28;20422;-79
2022/04/14 00:09:00;;;;;;;35.40;14.20;;;;;;;-141.50;100.00;63355.56;5073450;28;20056;-80
2022/04/14 00:11:26;;;;;;;34.45;15.13;;;;;;;-141.50;100.00;63355.56;5072771;28;20048;-78
2022/04/14 00:13:53;;;;;;;32.97;14.43;;;;;;;-141.50;100.00;63355.56;5074302;28;20541;-78
2022/04/14 00:16:20;;;;;;;35.30;15.70;;;;;;;-141.50;100.00;63355.56;5077189;28;20057;-79
2022/04/14 00:18:46;;;;;;;31.70;13.73;;;;;;;-141.50;100.00;63355.56;5071364;28;20044;-80
2022/04/14 00:21:13;;;;;;;29.92;13.90;;;;;;;-141.50;100.00;63355.56;5072339;28;20044;-79
2022/04/14 00:23:40;;;;;;;34.45;14.15;;;;;;;-141.50;100.00;63355.56;5071488;28;20052;-77
2022/04/14 00:26:07;;;;;;;31.50;14.35;;;;;;;-141.50;100.00;63355.56;5072593;28;20072;-79
2022/04/14 00:28:34;;;;;;;33.25;14.50;;;;;;;-141.50;100.00;63355.56;5072336;28;20052;-79
2022/04/14 00:31:04;;;;;;;36.72;14.77;;;;;;;-141.50;100.00;63355.56;5070136;28;20052;-79
2022/04/14 00:33:31;;;;;;;38.63;16.70;;;;;;;-141.50;100.00;63355.56;5074199;28;20083;-80
2022/04/14 00:35:58;;;;;;;35.05;15.60;;;;;;;-141.50;100.00;63355.56;5073906;28;20053;-78
2022/04/14 00:38:25;;;;;;;35.08;15.32;;;;;;;-141.50;100.00;63355.56;5073194;28;20044;-80
2022/04/14 00:40:52;;;;;;;33.15;14.20;;;;;;;-141.50;100.00;63355.56;5072705;28;20476;-79
2022/04/14 00:43:22;;;;;;;39.10;15.73;;;;;;;-141.50;100.00;63355.56;5074944;28;20059;-79
2022/04/14 00:45:49;;;;;;;34.40;15.50;;;;;;;-141.50;100.00;63355.56;5092691;28;20153;-79
2022/04/14 00:48:16;;;;;;;36.90;15.85;;;;;;;-141.50;100.00;63355.56;5094053;28;20078;-78
2022/04/14 00:50:43;;;;;;;36.92;16.38;;;;;;;-141.50;100.00;63355.56;5091825;28;20076;-78
2022/04/14 00:53:09;;;;;;;35.75;16.25;;;;;;;-141.50;100.00;63355.56;5095792;28;20048;-79
2022/04/14 00:55:36;;;;;;;36.70;17.40;;;;;;;-141.50;100.00;63355.56;5098880;28;20056;-78
2022/04/14 00:58:02;;;;;;;40.85;17.13;;;;;;;-141.50;100.00;63355.56;5106915;28;20051;-77
2022/04/14 01:00:29;;;;;;;37.75;16.88;;;;;;;-141.50;100.00;63355.56;5096831;28;20070;-78
2022/04/14 01:02:56;;;;;;;37.63;16.17;;;;;;;-141.50;100.00;63355.56;5094093;28;20098;-76
2022/04/14 01:05:24;;;;;;;41.05;17.40;;;;;;;-141.50;100.00;63355.56;5090789;28;20084;-77
2022/04/14 01:07:51;;;;;;;49.08;18.52;;;;;;;-141.50;100.00;63355.56;5091083;28;20431;-77
2022/04/14 01:10:18;;;;;;;42.95;18.00;;;;;;;-141.50;100.00;63355.56;5094164;28;20126;-78
2022/04/14 01:12:45;;;;;;;39.38;18.55;;;;;;;-141.50;100.00;63355.56;5092950;28;20075;-77
2022/04/14 01:15:13;;;;;;;44.80;17.92;;;;;;;-141.50;100.00;63355.56;5093717;28;20072;-79
2022/04/14 01:17:41;;;;;;;40.83;17.73;;;;;;;-141.50;100.00;63355.56;5099276;28;20090;-77
2022/04/14 01:20:11;;;;;;;41.65;17.77;;;;;;;-141.50;100.00;63355.56;5096932;28;20158;-80
2022/04/14 01:22:45;;;;;;;47.97;17.98;;;;;;;-141.50;100.00;63355.56;5092201;28;20044;-78
2022/04/14 01:25:12;;;;;;;39.40;17.33;;;;;;;-141.50;100.00;63355.56;5094947;28;20044;-78
2022/04/14 01:27:39;;;;;;;47.75;19.55;;;;;;;-141.50;100.00;63355.56;5097471;28;20072;-78
2022/04/14 01:30:06;;;;;;;41.38;18.60;;;;;;;-141.50;100.00;63355.56;5095930;28;20102;-80
2022/04/14 01:32:32;;;;;;;51.28;18.75;;;;;;;-141.50;100.00;63355.56;5094941;28;20048;-79
2022/04/14 01:34:59;;;;;;;38.45;18.27;;;;;;;-141.50;100.00;63355.56;5092168;28;20088;-79
2022/04/14 01:37:28;;;;;;;36.83;17.73;;;;;;;-141.50;100.00;63355.56;5091671;28;20052;-78
2022/04/14 01:39:55;;;;;;;37.53;16.98;;;;;;;-141.50;100.00;63355.56;5092815;28;20075;-77
2022/04/14 01:42:21;;;;;;;33.42;16.35;;;;;;;-141.50;100.00;63355.56;5093883;28;20547;-78
2022/04/14 01:44:48;;;;;;;41.83;18.52;;;;;;;-141.50;100.00;63355.56;5093061;28;20516;-79
2022/04/14 01:47:16;;;;;;;40.45;18.88;;;;;;;-141.50;100.00;63355.56;5095949;28;20518;-79
2022/04/14 01:49:43;;;;;;;47.13;20.70;;;;;;;-141.50;100.00;63355.56;5096316;28;20080;-79
2022/04/14 01:52:09;;;;;;;41.70;18.70;;;;;;;-141.50;100.00;63355.56;5096292;28;20040;-79
2022/04/14 01:54:36;;;;;;;40.30;18.67;;;;;;;-141.50;100.00;63355.56;5093743;28;20372;-79
2022/04/14 01:57:03;;;;;;;41.53;18.67;;;;;;;-141.50;100.00;63355.56;5097372;28;20090;-80
2022/04/14 01:59:29;;;;;;;39.95;18.45;;;;;;;-141.50;100.00;63355.56;5098829;28;20750;-78
2022/04/14 02:01:56;;;;;;;50.88;21.20;;;;;;;-141.50;100.00;63355.56;5093188;28;20420;-77
2022/04/14 02:04:23;;;;;;;49.55;22.27;;;;;;;-141.50;100.00;63355.56;5093030;28;20520;-81
2022/04/14 02:06:49;;;;;;;47.97;21.65;;;;;;;-141.50;100.00;63355.56;5086931;28;20079;-77
2022/04/14 02:09:16;;;;;;;48.95;22.83;;;;;;;-141.50;100.00;63355.56;5095203;28;20048;-80
2022/04/14 02:11:42;;;;;;;53.70;21.25;;;;;;;-141.50;100.00;63355.56;5094082;28;20048;-79
2022/04/14 02:14:09;;;;;;;53.85;22.05;;;;;;;-141.50;100.00;63355.56;5095669;28;20074;-79
2022/04/14 02:16:35;;;;;;;51.40;21.30;;;;;;;-141.50;100.00;63355.56;5095481;28;20103;-79
2022/04/14 02:19:02;;;;;;;50.92;21.27;;;;;;;-141.50;100.00;63355.56;5097347;28;20060;-79
2022/04/14 02:21:29;;;;;;;34.80;18.13;;;;;;;-141.50;100.00;63355.56;5093612;28;20098;-79
2022/04/14 02:23:55;;;;;;;46.97;19.75;;;;;;;-141.50;100.00;63355.56;5096127;28;20047;-78
2022/04/14 02:26:22;;;;;;;43.92;20.40;;;;;;;-141.50;100.00;63355.56;5095955;28;20462;-79
2022/04/14 02:28:48;;;;;;;44.95;20.70;;;;;;;-141.50;100.00;63355.56;5101260;28;20068;-81
2022/04/14 02:31:15;;;;;;;48.83;21.30;;;;;;;-141.50;100.00;63355.56;5101721;28;20428;-79
2022/04/14 02:33:41;;;;;;;47.00;20.90;;;;;;;-141.50;100.00;63355.56;5101899;28;20083;-79
2022/04/14 02:36:08;;;;;;;49.70;21.15;;;;;;;-141.50;100.00;63355.56;5101440;28;20530;-81
2022/04/14 02:38:34;;;;;;;44.38;20.45;;;;;;;-141.50;100.00;63355.56;5102942;28;20119;-81
2022/04/14 02:41:02;;;;;;;50.92;21.33;;;;;;;-141.50;100.00;63355.56;5101725;28;20362;-79
2022/04/14 02:43:28;;;;;;;50.33;21.77;;;;;;;-141.50;100.00;63355.56;5102220;28;20078;-80
2022/04/14 02:45:55;;;;;;;53.83;21.25;;;;;;;-141.50;100.00;63355.56;5102691;28;20047;-79
2022/04/14 02:48:22;;;;;;;49.13;21.00;;;;;;;-141.50;100.00;63355.56;5102200;28;20055;-80
2022/04/14 02:50:48;;;;;;;48.63;20.85;;;;;;;-141.50;100.00;63355.56;5101168;28;20835;-79
2022/04/14 02:53:15;;;;;;;48.97;21.42;;;;;;;-141.50;100.00;63355.56;5102151;28;20571;-80
2022/04/14 02:55:41;;;;;;;53.70;21.48;;;;;;;-141.50;100.00;63355.56;5100116;28;20059;-78
2022/04/14 02:58:08;;;;;;;51.25;22.60;;;;;;;-141.50;100.00;63355.56;5096671;28;20133;-78
2022/04/14 03:00:34;;;;;;;49.97;20.40;;;;;;;-141.50;100.00;63355.56;5093096;28;20524;-79
2022/04/14 03:03:01;;;;;;;44.05;19.45;;;;;;;-141.50;100.00;63355.56;5093070;28;20101;-79
2022/04/14 03:05:28;;;;;;;45.75;20.58;;;;;;;-141.50;100.00;63355.56;5092279;28;20063;-81
2022/04/14 03:07:55;;;;;;;38.28;19.50;;;;;;;-141.50;100.00;63355.56;5092649;28;20051;-80
2022/04/14 03:10:21;;;;;;;38.40;18.83;;;;;;;-141.50;100.00;63355.56;5096036;28;20060;-79
2022/04/14 03:12:49;;;;;;;44.25;19.95;;;;;;;-141.50;100.00;63355.56;5099268;28;20048;-80
2022/04/14 03:15:16;;;;;;;42.97;19.23;;;;;;;-141.50;100.00;63355.56;5112381;28;20039;-80
2022/04/14 03:17:43;;;;;;;41.70;19.38;;;;;;;-141.50;100.00;63355.56;5115285;28;20161;-77
2022/04/14 03:20:10;;;;;;;45.53;19.35;;;;;;;-141.50;100.00;63355.56;5106574;28;20047;-80
2022/04/14 03:22:37;;;;;;;43.22;19.58;;;;;;;-141.50;100.00;63355.56;5092370;28;20052;-77
2022/04/14 03:25:06;;;;;;;43.75;17.70;;;;;;;-141.50;100.00;63355.56;5092055;28;20063;-78
2022/04/14 03:27:33;;;;;;;38.78;16.90;;;;;;;-141.50;100.00;63355.56;5093415;28;20101;-79
2022/04/14 03:29:59;;;;;;;39.95;16.55;;;;;;;-141.50;100.00;63355.56;5097370;28;20084;-80
2022/04/14 03:32:26;;;;;;;35.22;16.10;;;;;;;-141.50;100.00;63355.56;5098290;28;20055;-80
2022/04/14 03:34:53;;;;;;;33.92;16.13;;;;;;;-141.50;100.00;63355.56;5095215;28;20056;-79
2022/04/14 03:37:20;;;;;;;35.40;17.05;;;;;;;-141.50;100.00;63355.56;5091096;28;20590;-79
2022/04/14 03:39:47;;;;;;;36.88;16.48;;;;;;;-141.50;100.00;63355.56;5088917;28;20084;-78
2022/04/14 03:42:14;;;;;;;38.45;17.38;;;;;;;-141.50;100.00;63355.56;5091716;28;20047;-79
2022/04/14 03:44:40;;;;;;;43.45;17.67;;;;;;;-141.50;100.00;63355.56;5091351;28;20072;-79
2022/04/14 03:47:07;;;;;;;40.45;18.02;;;;;;;-141.50;100.00;63355.56;5094963;28;20101;-78
2022/04/14 03:49:34;;;;;;;38.83;17.02;;;;;;;-141.50;100.00;63355.56;5088457;28;20048;-79
2022/04/14 03:52:00;;;;;;;42.70;18.15;;;;;;;-141.50;100.00;63355.56;5088808;28;20059;-78
2022/04/14 03:54:27;;;;;;;48.97;20.63;;;;;;;-141.50;100.00;63355.56;5090427;28;20068;-78
2022/04/14 03:56:54;;;;;;;56.33;20.50;;;;;;;-141.50;100.00;63355.56;5091210;28;20048;-78
2022/04/14 03:59:20;;;;;;;41.53;18.60;;;;;;;-141.50;100.00;63355.56;5090104;28;20048;-79
2022/04/14 04:01:47;;;;;;;38.75;17.98;;;;;;;-141.50;100.00;63355.56;5090261;28;20064;-79
2022/04/14 04:04:14;;;;;;;37.88;17.33;;;;;;;-141.50;100.00;63355.56;5096755;28;20138;-77
2022/04/14 04:06:41;;;;;;;37.13;16.58;;;;;;;-141.50;100.00;63355.56;5084286;28;20156;-79
2022/04/14 04:09:08;;;;;;;39.70;18.13;;;;;;;-141.50;100.00;63355.56;5088845;28;20105;-78
2022/04/14 04:11:34;;;;;;;38.63;17.58;;;;;;;-141.50;100.00;63355.56;5087608;28;20044;-78
2022/04/14 04:14:01;;;;;;;40.10;16.92;;;;;;;-141.50;100.00;63355.56;5090184;28;20070;-79
2022/04/14 04:16:27;;;;;;;37.28;16.33;;;;;;;-141.50;100.00;63355.56;5089833;28;20300;-79
2022/04/14 04:18:54;;;;;;;37.35;16.95;;;;;;;-141.50;100.00;63355.56;5090386;28;20058;-78
2022/04/14 04:21:21;;;;;;;39.63;17.52;;;;;;;-141.50;100.00;63355.56;5089417;28;20048;-78
2022/04/14 04:23:47;;;;;;;40.17;16.58;;;;;;;-141.50;100.00;63355.56;5092834;28;20083;-79
2022/04/14 04:26:14;;;;;;;37.30;16.35;;;;;;;-141.50;100.00;63355.56;5098051;28;20074;-79
2022/04/14 04:28:40;;;;;;;34.47;15.40;;;;;;;-141.50;100.00;63355.56;5102727;28;20082;-76
2022/04/14 04:31:10;;;;;;;34.95;15.82;;;;;;;-141.50;100.00;63355.56;5099386;28;20058;-78
2022/04/14 04:33:37;;;;;;;34.70;15.07;;;;;;;-141.50;100.00;63355.56;5099434;28;20052;-78
2022/04/14 04:36:04;;;;;;;35.63;17.13;;;;;;;-141.50;100.00;63355.56;5094383;28;20087;-81
2022/04/14 04:38:33;;;;;;;38.53;16.55;;;;;;;-141.50;100.00;63355.56;5095891;28;20471;-79
2022/04/14 04:41:00;;;;;;;36.47;16.02;;;;;;;-141.50;100.00;63355.56;5096150;28;20076;-78
2022/04/14 04:43:26;;;;;;;35.65;16.77;;;;;;;-141.50;100.00;63355.56;5095241;28;20127;-80
2022/04/14 04:45:53;;;;;;;39.50;16.98;;;;;;;-141.50;100.00;63355.56;5095603;28;20090;-79
2022/04/14 04:48:19;;;;;;;37.60;16.63;;;;;;;-141.50;100.00;63355.56;5097006;28;20052;-80
2022/04/14 04:50:46;;;;;;;40.22;15.30;;;;;;;-141.50;100.00;63355.56;5096647;28;20481;-78
2022/04/14 04:53:12;;;;;;;37.97;17.60;;;;;;;-141.50;100.00;63355.56;5095931;28;20051;-79
2022/04/14 04:55:39;;;;;;;39.30;17.58;;;;;;;-141.50;100.00;63355.56;5094845;28;20165;-78
2022/04/14 04:58:06;;;;;;;43.72;16.35;;;;;;;-141.50;100.00;63355.56;5093039;28;20052;-78
2022/04/14 05:00:33;;;;;;;41.40;17.02;;;;;;;-141.50;100.00;63355.56;5090504;28;20048;-78
2022/04/14 05:03:00;;;;;;;39.13;16.98;;;;;;;-141.50;100.00;63355.56;5092528;28;20071;-78
2022/04/14 05:05:27;;;;;;;34.28;16.05;;;;;;;-141.50;100.00;63355.56;5093295;28;20040;-78
2022/04/14 05:07:53;;;;;;;31.25;15.18;;;;;;;-141.50;100.00;63355.56;5090113;28;20040;-76
2022/04/14 05:10:19;;;;;;;34.65;16.13;;;;;;;-141.50;100.00;63355.56;5077709;28;20084;-80
2022/04/14 05:12:46;;;;;;;28.05;15.00;;;;;;;-141.50;100.00;63355.56;5075497;28;20083;-79
2022/04/14 05:15:13;;;;;;;25.05;13.60;;;;;;;-141.50;100.00;63355.56;5076249;28;20063;-79
2022/04/14 05:17:40;;;;;;;31.35;15.20;;;;;;;-141.50;100.00;63355.56;5077167;28;20503;-78
2022/04/14 05:20:07;;;;;;;29.90;15.40;;;;;;;-141.50;100.00;63355.56;5078659;28;20048;-79
2022/04/14 05:22:34;;;;;;;29.23;15.23;;;;;;;-141.50;100.00;63355.56;5075175;28;20041;-78
2022/04/14 05:25:02;;;;;;;31.58;17.00;;;;;;;-141.50;100.00;63355.56;5081272;28;20151;-80
2022/04/14 05:27:29;;;;;;;31.75;17.48;;;;;;;-141.50;100.00;63355.56;5094862;28;20048;-81
2022/04/14 05:29:55;;;;;;;33.45;17.80;;;;;;;-141.50;100.00;63355.56;5095650;28;20158;-78
2022/04/14 05:32:22;;;;;;;37.80;20.08;;;;;;;-141.50;100.00;63355.56;5099203;28;20089;-82
2022/04/14 05:34:54;;;;;;;41.88;20.63;;;;;;;-141.50;100.00;63355.56;5111437;28;20052;-80
2022/04/14 05:37:21;;;;;;;43.90;21.67;;;;;;;-141.50;100.00;63355.56;5102472;28;20048;-80
2022/04/14 05:39:47;;;;;;;39.17;21.92;;;;;;;-141.50;100.00;63355.56;5097268;28;20068;-78
2022/04/14 05:42:14;;;;;;;43.38;23.10;;;;;;;-141.50;100.00;63355.56;5095475;28;20044;-79
2022/04/14 05:44:41;;;;;;;45.83;23.58;;;;;;;-141.50;100.00;63355.56;5095767;28;20052;-80
2022/04/14 05:47:07;;;;;;;50.75;24.02;;;;;;;-141.50;100.00;63355.56;5096545;28;20066;-79
2022/04/14 05:49:34;;;;;;;43.38;24.88;;;;;;;-141.50;100.00;63355.56;5097169;28;20123;-78
2022/04/14 05:52:00;;;;;;;43.30;24.33;;;;;;;-141.50;100.00;63355.56;5092517;28;20048;-79
2022/04/14 05:54:27;;;;;;;45.83;25.23;;;;;;;-141.50;100.00;63355.56;5094063;28;20044;-79
2022/04/14 05:56:53;;;;;;;56.30;25.48;;;;;;;-141.50;100.00;63355.56;5092686;28;20060;-79
2022/04/14 05:59:23;;;;;;;42.22;23.65;;;;;;;-141.50;100.00;63355.56;5096125;28;20081;-79
2022/04/14 06:01:49;;;;;;;49.65;24.20;;;;;;;-141.50;100.00;63355.56;5093775;28;20096;-79
2022/04/14 06:04:21;;;;;;;45.85;24.73;;;;;;;-141.50;100.00;63355.56;5094066;28;20048;-78
2022/04/14 06:06:47;;;;;;;46.63;24.73;;;;;;;-141.50;100.00;63355.56;5093954;28;20287;-78
2022/04/14 06:09:14;;;;;;;51.65;23.60;;;;;;;-141.50;100.00;63355.56;5094943;28;20056;-80
2022/04/14 06:11:40;;;;;;;41.35;23.30;;;;;;;-141.50;100.00;63355.56;5093323;28;20044;-78
2022/04/14 06:14:07;;;;;;;44.42;22.92;;;;;;;-141.50;100.00;63355.56;5094395;28;20085;-77
2022/04/14 06:16:34;;;;;;;44.30;22.85;;;;;;;-141.50;100.00;63355.56;5096865;28;20044;-83
2022/04/14 06:19:01;;;;;;;47.47;23.92;;;;;;;-141.50;100.00;63355.56;5098860;28;20105;-79
2022/04/14 06:21:27;;;;;;;44.92;22.38;;;;;;;-141.50;100.00;63355.56;5093420;28;20060;-78
2022/04/14 06:23:55;;;;;;;48.63;23.30;;;;;;;-141.50;100.00;63355.56;5093944;28;20329;-79
2022/04/14 06:26:23;;;;;;;45.75;22.58;;;;;;;-141.50;100.00;63355.56;5091436;28;20094;-79
2022/04/14 06:28:49;;;;;;;37.45;21.20;;;;;;;-141.50;100.00;63355.56;5084250;28;20052;-81
2022/04/14 06:31:16;;;;;;;47.90;22.45;;;;;;;-141.50;100.00;63355.56;5077100;28;20053;-79
2022/04/14 06:33:44;;;;;;;43.05;21.30;;;;;;;-141.50;100.00;63355.56;5076103;28;20390;-80
2022/04/14 06:36:11;;;;;;;38.55;21.60;;;;;;;-141.50;100.00;63355.56;5075732;28;20515;-78
2022/04/14 06:38:39;;;;;;;37.22;20.98;;;;;;;-141.50;100.00;63355.56;5080031;28;20066;-79
2022/04/14 06:41:06;;;;;;;41.55;22.42;;;;;;;-141.50;100.00;63355.56;5079002;28;20060;-81
2022/04/14 06:43:33;;;;;;;41.60;21.63;;;;;;;-141.50;100.00;63355.56;5087024;28;20495;-79
2022/04/14 06:46:03;;;;;;;39.40;22.05;;;;;;;-141.50;100.00;63355.56;5082683;28;20059;-81
2022/04/14 06:48:31;;;;;;;40.45;22.45;;;;;;;-141.50;100.00;63355.56;5091739;28;20158;-81
2022/04/14 06:50:58;;;;;;;39.83;21.35;;;;;;;-141.50;100.00;63355.56;5088079;28;20129;-81
2022/04/14 06:53:26;;;;;;;38.13;20.95;;;;;;;-141.50;100.00;63355.56;5088680;28;20048;-81
2022/04/14 06:55:53;;;;;;;36.55;19.40;;;;;;;-141.50;100.00;63355.56;5089396;28;20135;-80
2022/04/14 06:58:20;;;;;;;34.80;19.77;;;;;;;-141.50;100.00;63355.56;5090960;28;20038;-81
2022/04/14 07:00:48;;;;;;;36.55;21.02;;;;;;;-141.50;100.00;63355.56;5095785;28;20056;-82
2022/04/14 07:03:14;;;;;;;33.45;19.17;;;;;;;-141.50;100.00;63355.56;5110121;28;20044;-81
2022/04/14 07:05:43;;;;;;;39.72;19.65;;;;;;;-141.50;100.00;63355.56;5099758;28;20111;-81
2022/04/14 07:08:10;;;;;;;36.83;18.67;;;;;;;-141.50;100.00;63355.56;5110224;28;20040;-81
2022/04/14 07:10:37;;;;;;;34.30;18.70;;;;;;;-141.50;100.00;63355.56;5114434;28;20032;-82
2022/04/14 07:13:09;;;;;;;36.88;19.75;;;;;;;-141.50;100.00;63355.56;5114905;28;20086;-81
2022/04/14 07:15:36;;;;;;;37.88;19.20;;;;;;;-141.50;100.00;63355.56;5112579;28;20048;-80
2022/04/14 07:18:02;;;;;;;37.92;19.20;;;;;;;-141.50;100.00;63355.56;5109093;28;20074;-82
2022/04/14 07:20:30;;;;;;;34.72;19.02;;;;;;;-141.50;100.00;63355.56;5109600;28;20087;-82
2022/04/14 07:23:02;;;;;;;32.60;18.73;;;;;;;-141.50;100.00;63355.56;5106656;28;20044;-79
2022/04/14 07:25:33;;;;;;;33.15;18.67;;;;;;;-141.50;100.00;63355.56;5103210;28;20055;-81
2022/04/14 07:28:01;;;;;;;33.17;18.13;;;;;;;-141.50;100.00;63355.56;5103574;28;20078;-81
2022/04/14 07:30:28;;;;;;;32.85;18.60;;;;;;;-141.50;100.00;63355.56;5102437;28;20047;-80
2022/04/14 07:32:55;;;;;;;38.35;18.23;;;;;;;-141.50;100.00;63355.56;5106954;28;20040;-81
2022/04/14 07:35:22;;;;;;;31.98;17.67;;;;;;;-141.50;100.00;63355.56;5107039;28;20063;-79
2022/04/14 07:37:49;;;;;;;32.90;18.30;;;;;;;-141.50;100.00;63355.56;5100046;28;20139;-80
2022/04/14 07:40:16;;;;;;;30.42;17.67;;;;;;;-141.50;100.00;63355.56;5101667;28;20052;-77
2022/04/14 07:42:44;;;;;;;31.10;17.48;;;;;;;-141.50;100.00;63355.56;5100542;28;20204;-79
2022/04/14 07:45:12;;;;;;;28.90;17.50;;;;;;;-141.50;100.00;63355.56;5108559;28;20055;-80
2022/04/14 07:47:42;;;;;;;30.95;17.92;;;;;;;-141.50;100.00;63355.56;5109380;28;20052;-81
2022/04/14 07:50:13;;;;;;;36.22;17.55;;;;;;;-141.50;100.00;63355.56;5111124;28;20079;-80
2022/04/14 07:52:50;;;;;;;33.42;17.45;;;;;;;-141.50;100.00;63355.56;5111507;28;20066;-83
2022/04/14 07:55:28;;;;;;;30.65;17.95;;;;;;;-141.50;100.00;63355.56;5112828;28;20044;-79
2022/04/14 07:57:57;;;;;;;30.67;17.20;;;;;;;-141.50;100.00;63355.56;5110545;28;20067;-82
2022/04/14 08:00:25;;;;;;;31.77;18.52;;;;;;;-141.50;100.00;63355.56;5109248;28;20063;-81
2022/04/14 08:02:58;;;;;;;28.08;16.45;;;;;;;-141.50;100.00;63355.56;5110407;28;20116;-82
2022/04/14 08:05:34;;;;;;;33.80;16.85;;;;;;;-141.50;100.00;63355.56;5109412;28;20590;-81
2022/04/14 08:08:03;;;;;;;37.75;16.52;;;;;;;-141.50;100.00;63355.56;5100590;28;20060;-82
2022/04/14 08:10:30;;;;;;;28.08;16.23;;;;;;;-141.50;100.00;63355.56;5090499;28;20048;-82
2022/04/14 08:12:57;;;;;;;32.90;16.08;;;;;;;-141.50;100.00;63355.56;5092066;28;20052;-79
2022/04/14 08:15:26;;;;;;;26.52;15.43;;;;;;;-141.50;100.00;63355.56;5094463;28;20108;-82
2022/04/14 08:17:52;;;;;;;27.98;15.93;;;;;;;-141.50;100.00;63355.56;5094433;28;20051;-82
2022/04/14 08:20:19;;;;;;;30.48;16.35;;;;;;;-141.50;100.00;63355.56;5093266;28;20045;-82
2022/04/14 08:22:54;;;;;;;32.83;16.38;;;;;;;-141.50;100.00;63355.56;5091224;28;20063;-81
2022/04/14 08:25:22;;;;;;;36.20;16.20;;;;;;;-141.50;100.00;63355.56;5092411;28;20049;-80
2022/04/14 08:27:51;;;;;;;29.52;16.30;;;;;;;-141.50;100.00;63355.56;5090269;28;20052;-83
2022/04/14 08:30:20;;;;;;;35.05;16.00;;;;;;;-141.50;100.00;63355.56;5092994;28;20036;-81
2022/04/14 08:32:49;;;;;;;28.23;15.88;;;;;;;-141.50;100.00;63355.56;5103635;28;20556;-83
2022/04/14 08:35:17;;;;;;;35.35;16.88;;;;;;;-141.50;100.00;63355.56;5112483;28;20039;-82
2022/04/14 08:37:44;;;;;;;30.27;15.63;;;;;;;-141.50;100.00;63355.56;5110997;28;20109;-83
2022/04/14 08:40:14;;;;;;;29.30;16.75;;;;;;;-141.50;100.00;63355.56;5110004;28;20085;-81
2022/04/14 08:42:42;;;;;;;31.55;15.27;;;;;;;-141.50;100.00;63355.56;5110557;28;20052;-83
2022/04/14 08:45:12;;;;;;;31.42;16.05;;;;;;;-141.50;100.00;63355.56;5111712;28;20074;-80
2022/04/14 08:47:40;;;;;;;28.00;15.63;;;;;;;-141.50;100.00;63355.56;5110041;28;20324;-81
2022/04/14 08:50:09;;;;;;;30.73;16.42;;;;;;;-141.50;100.00;63355.56;5108879;28;20512;-80
2022/04/14 08:52:38;;;;;;;28.83;15.90;;;;;;;-141.50;100.00;63355.56;5110173;28;20054;-80
2022/04/14 08:55:08;;;;;;;28.40;15.65;;;;;;;-141.50;100.00;63355.56;5109509;28;20059;-80
2022/04/14 08:57:41;;;;;;;30.27;16.08;;;;;;;-141.50;100.00;63355.56;5109610;28;20044;-81
2022/04/14 09:00:10;;;;;;;30.85;15.70;;;;;;;-141.50;100.00;63355.56;5108030;28;20071;-82
2022/04/14 09:02:37;;;;;;;33.40;17.35;;;;;;;-141.50;100.00;63355.56;5113364;28;20051;-82
2022/04/14 09:05:05;;;;;;;29.10;15.75;;;;;;;-141.50;100.00;63355.56;5112013;28;20116;-81
2022/04/14 09:07:33;;;;;;;31.30;15.68;;;;;;;-141.50;100.00;63355.56;5109492;28;20185;-79
2022/04/14 09:09:59;;;;;;;31.30;16.10;;;;;;;-141.50;100.00;63355.56;5111048;28;20044;-82
2022/04/14 09:12:27;;;;;;;26.92;15.38;;;;;;;-141.50;100.00;63355.56;5097193;28;20049;-80
2022/04/14 09:14:54;;;;;;;30.25;16.40;;;;;;;-141.50;100.00;63355.56;5106934;28;20052;-83
2022/04/14 09:17:21;;;;;;;29.58;15.80;;;;;;;-141.50;100.00;63355.56;5111193;28;20105;-81
2022/04/14 09:19:48;;;;;;;26.35;15.57;;;;;;;-141.50;100.00;63355.56;5109642;28;20048;-79
2022/04/14 09:22:15;;;;;;;25.70;16.05;;;;;;;-141.50;100.00;63355.56;5104083;28;20055;-79
2022/04/14 09:24:51;;;;;;;31.20;15.50;;;;;;;-141.50;100.00;63355.56;5107261;28;20048;-82
2022/04/14 09:27:22;;;;;;;28.85;15.35;;;;;;;-141.50;100.00;63355.56;5107031;28;20052;-79
2022/04/14 09:29:49;;;;;;;30.60;15.98;;;;;;;-141.50;100.00;63355.56;5108207;28;20056;-79
2022/04/14 09:32:42;;;;;;;29.70;15.38;;;;;;;-141.50;100.00;63355.56;5111255;28;20051;-81
2022/04/14 09:35:17;;;;;;;30.08;15.93;;;;;;;-141.50;100.00;63355.56;5105523;28;20048;-80
2022/04/14 09:37:44;;;;;;;25.13;15.23;;;;;;;-141.50;100.00;63355.56;5101629;28;20052;-82
2022/04/14 09:40:12;;;;;;;28.33;15.43;;;;;;;-141.50;100.00;63355.56;5104676;28;20286;-80
2022/04/14 09:42:41;;;;;;;26.45;14.43;;;;;;;-141.50;100.00;63355.56;5109181;28;20052;-79
2022/04/14 09:45:28;;;;;;;26.92;16.05;;;;;;;-141.50;100.00;63355.56;5109757;28;20103;-83
2022/04/14 09:48:10;;;;;;;28.55;15.77;;;;;;;-141.50;100.00;63355.56;5106094;28;20082;-81
2022/04/14 09:50:43;;;;;;;30.40;14.98;;;;;;;-141.50;100.00;63355.56;5109911;28;20280;-81
2022/04/14 09:53:12;;;;;;;27.88;15.05;;;;;;;-141.50;100.00;63355.56;5112115;28;20052;-83
2022/04/14 09:55:39;;;;;;;25.85;15.48;;;;;;;-141.50;100.00;63355.56;5111496;28;20052;-81
2022/04/14 09:58:17;;;;;;;24.05;13.57;;;;;;;-141.50;100.00;63355.56;5105623;28;20056;-80
2022/04/14 10:00:44;;;;;;;21.15;12.77;;;;;;;-141.50;100.00;63355.56;5105249;28;20062;-80
2022/04/14 10:03:14;;;;;;;22.52;12.50;;;;;;;-141.50;100.00;63355.56;5107099;28;20536;-78
2022/04/14 10:05:42;;;;;;;25.58;11.85;;;;;;;-141.50;100.00;63355.56;5106606;28;20044;-82
2022/04/14 10:08:09;;;;;;;21.45;10.75;;;;;;;-141.50;100.00;63355.56;5112430;28;20052;-82
2022/04/14 10:10:38;;;;;;;22.98;10.63;;;;;;;-141.50;100.00;63355.56;5110421;28;20056;-77
2022/04/14 10:13:08;;;;;;;19.33;10.30;;;;;;;-141.50;100.00;63355.56;5107522;28;20074;-81
2022/04/14 10:15:42;;;;;;;17.17;10.25;;;;;;;-141.50;100.00;63355.56;5106893;28;20065;-79
2022/04/14 10:18:10;;;;;;;20.17;10.60;;;;;;;-141.50;100.00;63355.56;5108231;28;20054;-81
2022/04/14 10:20:38;;;;;;;21.38;12.13;;;;;;;-141.50;100.00;63355.56;5108900;28;20047;-81
2022/04/14 10:23:07;;;;;;;19.50;11.88;;;;;;;-141.50;100.00;63355.56;5110376;28;20509;-80
2022/04/14 10:25:39;;;;;;;18.88;9.15;;;;;;;-141.50;100.00;63355.56;5107689;28;20052;-83
2022/04/14 10:28:16;;;;;;;16.20;8.02;;;;;;;-141.50;100.00;63355.56;5091770;28;20056;-82
2022/04/14 10:30:47;;;;;;;13.43;7.43;;;;;;;-141.50;100.00;63355.56;5093544;28;20036;-81
2022/04/14 10:33:22;;;;;;;15.63;8.10;;;;;;;-141.50;100.00;63355.56;5092381;28;20033;-82
2022/04/14 10:35:50;;;;;;;15.68;7.60;;;;;;;-141.50;100.00;63355.56;5091044;28;20048;-83
2022/04/14 10:38:30;;;;;;;18.73;8.68;;;;;;;-141.50;100.00;63355.56;5104635;28;20032;-83
2022/04/14 10:41:07;;;;;;;18.08;9.63;;;;;;;-141.50;100.00;63355.56;5096834;28;20071;-82
2022/04/14 10:43:34;;;;;;;17.10;9.75;;;;;;;-141.50;100.00;63355.56;5092413;28;20475;-79
2022/04/14 10:46:02;;;;;;;15.82;10.00;;;;;;;-141.50;100.00;63355.56;5084462;28;20056;-80
2022/04/14 10:48:36;;;;;;;16.92;9.77;;;;;;;-141.50;100.00;63355.56;5086915;28;20049;-81
2022/04/14 10:51:25;;;;;;;15.43;8.70;;;;;;;-141.50;100.00;63355.56;5104646;28;20105;-81
2022/04/14 10:54:00;;;;;;;14.98;9.20;;;;;;;-141.50;100.00;63355.56;5107948;28;20048;-78
2022/04/14 10:56:42;;;;;;;15.60;8.80;;;;;;;-141.50;100.00;63355.56;5085699;28;20214;-81
2022/04/14 10:59:19;;;;;;;13.52;8.10;;;;;;;-141.50;100.00;63355.56;5088207;28;20079;-79